Time;durP1;ratioP1;P1;durP2;ratioP2;P2;SDS_P1;SDS_P2;PMS_P1;PMS_P2;Temp;Humidity;BMP_temperature;BMP_pressure;BME280_temperature;BME280_humidity;BME280_pressure;Samples;Min_cycle;Max_cycle;Signal;HPM_P1;HPM_P2
2022/10/02 05:00:48;;;;;;;3.00;1.67;;;14.50;97.20;;;;;;1695083;29;20180;-69
2022/10/02 05:01:55;;;;;;;4.00;1.50;;;14.50;97.20;;;;;;1694951;29;20208;-68
2022/10/02 05:03:05;;;;;;;3.10;1.50;;;14.50;97.20;;;;;;1695178;29;20196;-70
2022/10/02 05:04:12;;;;;;;4.55;1.60;;;14.50;97.20;;;;;;1694619;29;20205;-68
2022/10/02 05:05:34;;;;;;;6.63;1.80;;;14.50;97.20;;;;;;1694471;29;20188;-68
2022/10/02 05:06:44;;;;;;;5.40;2.03;;;14.50;97.20;;;;;;1694046;29;20208;-68
2022/10/02 05:08:08;;;;;;;3.28;1.70;;;14.50;97.20;;;;;;1694851;29;20204;-68
2022/10/02 05:09:09;;;;;;;3.83;1.73;;;14.50;97.20;;;;;;1694795;29;20204;-70
2022/10/02 05:10:15;;;;;;;4.30;1.75;;;14.50;97.20;;;;;;1694478;29;20220;-68
2022/10/02 05:11:19;;;;;;;4.50;1.92;;;14.50;97.20;;;;;;1694726;29;20212;-68
2022/10/02 05:12:34;;;;;;;5.50;2.05;;;14.50;97.20;;;;;;1688261;29;20213;-68
2022/10/02 05:13:45;;;;;;;5.32;2.45;;;14.50;97.20;;;;;;1688081;29;20208;-68
2022/10/02 05:14:52;;;;;;;3.85;1.60;;;14.50;97.20;;;;;;1688269;29;20264;-69
2022/10/02 05:16:00;;;;;;;3.78;1.55;;;14.50;97.20;;;;;;1688185;29;20228;-68
2022/10/02 05:17:02;;;;;;;2.63;1.50;;;14.50;97.20;;;;;;1692056;29;20204;-68
2022/10/02 05:18:34;;;;;;;3.13;1.75;;;14.50;97.20;;;;;;1694855;29;20212;-70
2022/10/02 05:20:04;;;;;;;4.28;1.90;;;14.50;97.20;;;;;;1682941;29;20212;-68
2022/10/02 05:21:09;;;;;;;3.85;1.73;;;14.50;97.20;;;;;;1687986;29;20212;-68
2022/10/02 05:22:15;;;;;;;4.78;1.80;;;14.50;97.20;;;;;;1693593;29;20203;-68
2022/10/02 05:23:22;;;;;;;2.70;1.83;;;14.50;97.20;;;;;;1694604;29;20208;-68
2022/10/02 05:24:31;;;;;;;5.70;1.70;;;14.50;97.20;;;;;;1694744;29;20287;-70
2022/10/02 05:25:52;;;;;;;3.92;1.80;;;14.50;97.20;;;;;;1694577;29;20204;-70
2022/10/02 05:27:02;;;;;;;7.63;1.90;;;14.50;97.20;;;;;;1694390;29;20208;-70
2022/10/02 05:28:13;;;;;;;3.72;1.45;;;14.40;97.20;;;;;;1694539;29;20573;-71
2022/10/02 05:29:30;;;;;;;3.03;1.80;;;14.40;97.20;;;;;;1694543;29;20212;-70
2022/10/02 05:30:21;;;;;;;5.18;1.85;;;14.40;97.20;;;;;;1681997;29;20227;-70
2022/10/02 05:31:26;;;;;;;4.13;2.10;;;14.40;97.20;;;;;;1694560;29;20208;-70
2022/10/02 05:32:33;;;;;;;3.28;1.85;;;14.40;97.20;;;;;;1688122;29;20253;-70
2022/10/02 05:33:45;;;;;;;3.90;2.00;;;14.40;97.20;;;;;;1693617;29;20255;-70
2022/10/02 05:34:51;;;;;;;4.22;2.00;;;14.40;97.20;;;;;;1694603;29;20212;-70
2022/10/02 05:35:59;;;;;;;2.90;2.30;;;14.40;97.20;;;;;;1694612;29;20674;-70
2022/10/02 05:37:05;;;;;;;4.10;1.80;;;14.40;97.20;;;;;;1694349;29;20214;-70
2022/10/02 05:38:08;;;;;;;8.15;2.30;;;14.40;97.20;;;;;;1694631;29;20615;-70
2022/10/02 05:39:06;;;;;;;5.78;2.45;;;14.40;97.20;;;;;;1694563;29;20573;-70
2022/10/02 05:40:07;;;;;;;6.13;2.80;;;14.40;97.20;;;;;;1694376;29;20223;-70
2022/10/02 05:41:02;;;;;;;3.78;1.80;;;14.40;97.20;;;;;;1694213;29;20263;-68
2022/10/02 05:42:00;;;;;;;7.40;2.13;;;14.40;97.20;;;;;;1694558;29;20204;-68
2022/10/02 05:42:58;;;;;;;4.20;2.70;;;14.40;97.20;;;;;;1694476;29;20223;-68
2022/10/02 05:43:58;;;;;;;3.88;1.60;;;14.40;97.20;;;;;;1694599;29;20233;-68
2022/10/02 05:44:53;;;;;;;3.35;1.90;;;14.40;97.20;;;;;;1694588;29;20212;-68
2022/10/02 05:45:49;;;;;;;5.07;2.00;;;14.40;97.20;;;;;;1694204;29;20222;-68
2022/10/02 05:46:45;;;;;;;3.80;1.80;;;14.40;97.20;;;;;;1694488;29;20219;-68
2022/10/02 05:47:41;;;;;;;5.95;2.80;;;14.50;97.20;;;;;;1694337;29;20264;-68
2022/10/02 05:48:37;;;;;;;3.67;1.92;;;14.50;97.20;;;;;;1694518;29;20561;-68
2022/10/02 05:49:34;;;;;;;3.95;2.10;;;14.50;97.20;;;;;;1694191;29;20196;-68
2022/10/02 05:50:30;;;;;;;3.72;2.30;;;14.50;97.20;;;;;;1693851;29;20235;-68
2022/10/02 05:51:30;;;;;;;6.68;1.70;;;14.50;97.20;;;;;;1694476;29;20279;-68
2022/10/02 05:52:27;;;;;;;4.95;1.85;;;14.50;97.20;;;;;;1694487;29;20204;-68
2022/10/02 05:53:33;;;;;;;4.80;2.20;;;14.50;97.20;;;;;;1694072;29;20576;-68
2022/10/02 05:54:40;;;;;;;4.03;1.85;;;14.50;97.20;;;;;;1694479;29;20690;-68
2022/10/02 05:55:36;;;;;;;3.22;1.63;;;14.50;97.20;;;;;;1694495;29;20235;-68
2022/10/02 05:56:32;;;;;;;5.10;2.00;;;14.50;97.20;;;;;;1694493;29;20208;-68
2022/10/02 05:57:30;;;;;;;5.63;2.40;;;14.50;97.20;;;;;;1694478;29;20212;-68
2022/10/02 05:58:30;;;;;;;3.40;1.52;;;14.50;97.20;;;;;;1694187;29;20204;-68
2022/10/02 05:59:31;;;;;;;4.90;2.20;;;14.50;97.20;;;;;;1687937;29;20209;-68
2022/10/02 06:00:32;;;;;;;5.32;1.95;;;14.50;97.20;;;;;;1687655;29;20719;-68
2022/10/02 06:01:26;;;;;;;8.98;2.20;;;14.50;97.20;;;;;;1687890;29;20212;-67
2022/10/02 06:02:27;;;;;;;7.03;2.28;;;14.50;97.20;;;;;;1687898;29;20205;-69
2022/10/02 06:03:24;;;;;;;5.15;1.63;;;14.50;97.20;;;;;;1690477;29;20215;-68
2022/10/02 06:04:22;;;;;;;3.78;1.80;;;14.50;97.20;;;;;;1694377;29;20567;-68
2022/10/02 06:05:18;;;;;;;3.80;1.85;;;14.50;97.20;;;;;;1694278;29;20200;-68
2022/10/02 06:06:15;;;;;;;4.20;2.10;;;14.40;97.20;;;;;;1694390;29;20702;-68
2022/10/02 06:07:08;;;;;;;5.20;1.88;;;14.40;97.20;;;;;;1694444;29;20212;-68
2022/10/02 06:08:04;;;;;;;3.25;1.40;;;14.40;97.20;;;;;;1694527;29;20235;-68
2022/10/02 06:09:00;;;;;;;4.05;1.55;;;14.40;97.20;;;;;;1694182;29;20327;-68
2022/10/02 06:09:56;;;;;;;6.57;2.47;;;14.40;97.20;;;;;;1693804;29;20203;-68
2022/10/02 06:10:52;;;;;;;3.22;1.77;;;14.40;97.20;;;;;;1694411;29;20631;-68
2022/10/02 06:11:48;;;;;;;6.15;1.77;;;14.40;97.20;;;;;;1694239;29;20616;-68
2022/10/02 06:12:45;;;;;;;3.85;1.88;;;14.40;97.20;;;;;;1694341;29;20581;-68
2022/10/02 06:13:42;;;;;;;6.78;1.70;;;14.40;97.20;;;;;;1694163;29;20223;-69
2022/10/02 06:14:37;;;;;;;5.32;1.70;;;14.40;97.20;;;;;;1694485;29;20243;-68
2022/10/02 06:15:32;;;;;;;5.65;1.70;;;14.40;97.20;;;;;;1694336;29;20212;-68
2022/10/02 06:16:29;;;;;;;5.90;2.00;;;14.40;97.20;;;;;;1694383;29;20203;-68
2022/10/02 06:17:25;;;;;;;6.63;2.15;;;14.40;97.20;;;;;;1694057;29;20701;-68
2022/10/02 06:18:21;;;;;;;5.18;1.55;;;14.40;97.20;;;;;;1694289;29;20649;-68
2022/10/02 06:19:16;;;;;;;4.57;1.80;;;14.40;97.20;;;;;;1694419;29;20208;-68
2022/10/02 06:20:17;;;;;;;5.63;1.85;;;14.40;97.20;;;;;;1694011;29;20303;-68
2022/10/02 06:21:22;;;;;;;4.07;2.05;;;14.40;97.20;;;;;;1694389;29;20208;-68
2022/10/02 06:22:16;;;;;;;8.10;1.83;;;14.30;97.20;;;;;;1694310;29;20238;-68
2022/10/02 06:23:12;;;;;;;5.32;1.95;;;14.30;97.20;;;;;;1694287;29;20203;-68
2022/10/02 06:24:11;;;;;;;8.85;1.90;;;14.30;97.20;;;;;;1694045;29;20554;-68
2022/10/02 06:25:10;;;;;;;5.93;1.60;;;14.30;97.20;;;;;;1694267;29;20686;-68
2022/10/02 06:26:07;;;;;;;4.55;1.67;;;14.30;97.20;;;;;;1694006;29;20231;-68
2022/10/02 06:27:03;;;;;;;8.35;2.03;;;14.30;97.20;;;;;;1694246;29;20241;-67
2022/10/02 06:28:01;;;;;;;6.22;2.05;;;14.30;97.20;;;;;;1694285;29;20239;-69
2022/10/02 06:28:59;;;;;;;7.13;2.20;;;14.40;97.20;;;;;;1694255;29;20671;-68
2022/10/02 06:29:57;;;;;;;3.80;2.00;;;14.40;97.20;;;;;;1694019;29;20291;-68
2022/10/02 06:30:51;;;;;;;7.57;2.40;;;14.40;97.20;;;;;;1694348;29;20208;-68
2022/10/02 06:31:48;;;;;;;6.43;2.33;;;14.40;97.20;;;;;;1693427;29;20196;-68
2022/10/02 06:32:47;;;;;;;5.80;2.13;;;14.40;97.20;;;;;;1694112;29;20211;-68
2022/10/02 06:33:39;;;;;;;6.18;2.08;;;14.40;97.20;;;;;;1693804;29;20257;-68
2022/10/02 06:34:30;;;;;;;5.93;1.60;;;14.40;97.20;;;;;;1694154;29;20250;-68
2022/10/02 06:35:37;;;;;;;4.10;1.80;;;14.40;97.20;;;;;;1694209;29;20200;-68
2022/10/02 06:36:49;;;;;;;7.75;1.75;;;14.40;97.20;;;;;;1693988;29;20200;-68
2022/10/02 06:37:51;;;;;;;4.88;1.85;;;14.40;97.20;;;;;;1694329;29;20211;-69
2022/10/02 06:39:04;;;;;;;4.05;1.60;;;14.40;97.20;;;;;;1694171;29;20675;-68
2022/10/02 06:40:24;;;;;;;6.10;1.80;;;14.40;97.20;;;;;;1693992;29;20698;-68
2022/10/02 06:41:25;;;;;;;6.13;2.00;;;14.40;97.20;;;;;;1693791;29;20239;-68
2022/10/02 06:42:31;;;;;;;6.63;2.20;;;14.40;97.20;;;;;;1694305;29;20796;-68
2022/10/02 06:44:00;;;;;;;7.40;2.08;;;14.40;97.20;;;;;;1694340;29;20549;-68
2022/10/02 06:45:02;;;;;;;3.60;1.70;;;14.40;97.20;;;;;;1685378;29;20232;-68
2022/10/02 06:46:01;;;;;;;5.30;1.90;;;14.40;97.20;;;;;;1694047;29;20349;-68
2022/10/02 06:47:06;;;;;;;7.68;2.60;;;14.40;97.20;;;;;;1693947;29;20204;-68
2022/10/02 06:48:05;;;;;;;4.97;1.52;;;14.40;97.20;;;;;;1694255;29;20218;-69
2022/10/02 06:49:00;;;;;;;6.93;2.30;;;14.40;97.20;;;;;;1694274;29;20223;-69
2022/10/02 06:50:15;;;;;;;3.90;2.05;;;14.50;97.20;;;;;;1694007;29;20291;-68
2022/10/02 06:51:16;;;;;;;4.25;2.00;;;14.50;97.20;;;;;;1694078;29;20306;-69
2022/10/02 06:52:19;;;;;;;7.10;2.10;;;14.50;97.20;;;;;;1687819;29;20209;-70
2022/10/02 06:53:36;;;;;;;7.53;1.85;;;14.50;97.20;;;;;;1687808;29;20594;-69
2022/10/02 06:54:44;;;;;;;4.57;1.83;;;14.50;97.20;;;;;;1687759;29;20266;-69
2022/10/02 06:55:44;;;;;;;5.35;2.10;;;14.50;97.20;;;;;;1687900;29;20204;-68
2022/10/02 06:56:45;;;;;;;4.97;1.67;;;14.50;97.20;;;;;;1690572;29;20196;-69
2022/10/02 06:57:53;;;;;;;5.95;1.58;;;14.50;97.20;;;;;;1694425;29;20212;-69
2022/10/02 06:58:59;;;;;;;4.70;2.00;;;14.50;97.20;;;;;;1694298;29;20267;-70
2022/10/02 07:00:08;;;;;;;5.60;1.80;;;14.50;97.20;;;;;;1693664;29;20209;-69
2022/10/02 07:01:11;;;;;;;4.75;2.03;;;14.50;97.20;;;;;;1694225;29;20658;-69
2022/10/02 07:02:16;;;;;;;5.63;2.00;;;14.60;97.20;;;;;;1694062;29;20219;-69
2022/10/02 07:03:34;;;;;;;5.35;2.15;;;14.60;97.20;;;;;;1693845;29;20200;-69
2022/10/02 07:04:41;;;;;;;6.05;2.30;;;14.60;97.20;;;;;;1694268;29;20215;-70
2022/10/02 07:06:03;;;;;;;4.65;1.73;;;14.60;97.20;;;;;;1694191;29;20227;-69
2022/10/02 07:07:05;;;;;;;6.53;2.05;;;14.60;97.20;;;;;;1692277;29;20204;-69
2022/10/02 07:08:02;;;;;;;4.38;1.80;;;14.60;97.20;;;;;;1694199;29;20208;-69
2022/10/02 07:09:16;;;;;;;4.68;2.20;;;14.60;97.20;;;;;;1694429;29;20212;-69
2022/10/02 07:10:33;;;;;;;6.50;1.90;;;14.70;97.20;;;;;;1694069;29;20231;-69
2022/10/02 07:11:31;;;;;;;2.90;1.70;;;14.70;97.20;;;;;;1693732;29;20291;-70
2022/10/02 07:12:40;;;;;;;4.20;2.13;;;14.70;97.20;;;;;;1694278;29;20211;-69
2022/10/02 07:13:52;;;;;;;4.72;2.13;;;14.70;97.20;;;;;;1694177;29;20666;-69
2022/10/02 07:14:58;;;;;;;5.07;2.00;;;14.70;97.20;;;;;;1687716;29;20229;-69
2022/10/02 07:16:19;;;;;;;5.93;1.90;;;14.70;97.20;;;;;;1687767;29;20667;-69
2022/10/02 07:17:21;;;;;;;7.80;2.17;;;14.70;97.20;;;;;;1693519;29;20585;-69
2022/10/02 07:18:24;;;;;;;9.63;2.15;;;14.70;97.20;;;;;;1694176;29;20213;-69
2022/10/02 07:19:43;;;;;;;7.22;2.58;;;14.70;97.20;;;;;;1694327;29;20722;-69
2022/10/02 07:20:45;;;;;;;6.10;2.17;;;14.70;97.20;;;;;;1694130;29;20204;-69
2022/10/02 07:21:45;;;;;;;6.13;1.90;;;14.70;97.20;;;;;;1694261;29;20267;-69
2022/10/02 07:22:54;;;;;;;3.45;1.92;;;14.70;97.20;;;;;;1695453;29;20225;-70
2022/10/02 07:23:53;;;;;;;5.45;2.50;;;14.80;97.20;;;;;;1695273;29;20235;-69
2022/10/02 07:24:57;;;;;;;5.13;2.03;;;14.80;97.20;;;;;;1695263;29;20204;-69
2022/10/02 07:26:12;;;;;;;7.45;2.42;;;14.80;97.20;;;;;;1695442;29;20259;-70
2022/10/02 07:27:11;;;;;;;8.55;2.85;;;14.80;97.20;;;;;;1695147;29;20204;-69
2022/10/02 07:28:12;;;;;;;4.60;2.40;;;14.80;97.20;;;;;;1695166;29;20200;-70
2022/10/02 07:29:15;;;;;;;6.72;3.10;;;14.80;97.20;;;;;;1695355;29;20235;-69
2022/10/02 07:30:10;;;;;;;11.05;3.38;;;14.80;97.20;;;;;;1695014;29;20231;-70
2022/10/02 07:31:11;;;;;;;6.78;4.20;;;14.90;97.20;;;;;;1695114;29;20233;-69
2022/10/02 07:32:38;;;;;;;9.10;4.32;;;14.90;97.20;;;;;;1692610;29;20295;-70
2022/10/02 07:33:41;;;;;;;7.35;3.38;;;14.90;97.20;;;;;;1695334;29;20203;-69
2022/10/02 07:34:43;;;;;;;6.55;3.05;;;14.90;97.20;;;;;;1695325;29;20283;-69
2022/10/02 07:35:42;;;;;;;4.60;3.13;;;14.90;97.20;;;;;;1695379;29;20342;-69
2022/10/02 07:36:45;;;;;;;6.82;3.20;;;14.90;97.20;;;;;;1695236;29;20204;-69
2022/10/02 07:37:46;;;;;;;5.93;3.03;;;14.90;97.20;;;;;;1688838;29;20581;-69
2022/10/02 07:38:59;;;;;;;5.22;3.50;;;14.90;97.20;;;;;;1688804;29;20263;-70
2022/10/02 07:40:09;;;;;;;6.50;2.90;;;14.90;97.20;;;;;;1688465;29;20288;-69
2022/10/02 07:41:15;;;;;;;8.02;3.10;;;14.90;97.20;;;;;;1688754;29;20263;-69
2022/10/02 07:42:23;;;;;;;4.75;2.85;;;14.90;97.20;;;;;;1689616;29;20289;-69
2022/10/02 07:43:27;;;;;;;6.22;3.30;;;14.90;97.20;;;;;;1693636;29;20200;-69
2022/10/02 07:44:34;;;;;;;7.90;3.20;;;14.90;97.20;;;;;;1692750;29;20734;-69
2022/10/02 07:45:33;;;;;;;8.43;3.92;;;14.90;97.20;;;;;;1689984;29;20212;-69
2022/10/02 07:46:32;;;;;;;8.73;3.00;;;14.90;97.20;;;;;;1692510;29;20204;-70
2022/10/02 07:47:41;;;;;;;6.35;3.13;;;14.90;97.20;;;;;;1690858;29;20212;-68
2022/10/02 07:48:47;;;;;;;3.72;2.97;;;14.90;97.20;;;;;;1694999;29;20200;-69
2022/10/02 07:49:49;;;;;;;8.65;3.03;;;14.90;97.20;;;;;;1691884;29;20200;-71
2022/10/02 07:50:52;;;;;;;6.53;2.92;;;15.00;97.20;;;;;;1694755;29;20263;-69
2022/10/02 07:51:50;;;;;;;5.78;2.90;;;15.00;97.20;;;;;;1690252;29;20628;-69
2022/10/02 07:52:49;;;;;;;6.25;3.40;;;15.00;97.20;;;;;;1691451;29;20193;-69
2022/10/02 07:53:45;;;;;;;7.22;3.55;;;15.00;97.20;;;;;;1689317;29;20216;-69
2022/10/02 07:55:02;;;;;;;8.90;3.28;;;15.00;97.20;;;;;;1688684;29;20702;-69
2022/10/02 07:55:54;;;;;;;7.13;3.30;;;15.00;97.20;;;;;;1688752;29;20343;-69
2022/10/02 07:56:48;;;;;;;8.98;3.35;;;15.00;97.20;;;;;;1688631;29;20201;-69
2022/10/02 07:57:44;;;;;;;6.97;3.35;;;15.00;97.20;;;;;;1688707;29;20581;-69
2022/10/02 07:58:41;;;;;;;8.73;3.35;;;15.00;97.20;;;;;;1688743;29;20240;-69
2022/10/02 07:59:33;;;;;;;5.40;3.25;;;15.00;97.20;;;;;;1688738;29;20201;-69
2022/10/02 08:00:28;;;;;;;7.75;3.47;;;15.00;97.20;;;;;;1688173;29;20687;-68
2022/10/02 08:01:22;;;;;;;6.50;2.97;;;15.00;97.20;;;;;;1688526;29;20204;-69
2022/10/02 08:02:22;;;;;;;5.30;2.97;;;15.00;97.20;;;;;;1688760;29;20738;-69
2022/10/02 08:03:17;;;;;;;5.43;2.70;;;15.00;97.20;;;;;;1688725;29;20213;-69
2022/10/02 08:04:14;;;;;;;7.80;3.10;;;15.10;97.20;;;;;;1688561;29;20204;-69
2022/10/02 08:05:15;;;;;;;6.05;2.75;;;15.10;97.20;;;;;;1689305;29;20248;-69
2022/10/02 08:06:08;;;;;;;3.90;2.75;;;15.10;97.20;;;;;;1695035;29;20216;-69
2022/10/02 08:07:01;;;;;;;8.90;3.10;;;15.10;97.20;;;;;;1694982;29;20212;-70
2022/10/02 08:07:56;;;;;;;6.30;2.78;;;15.10;97.20;;;;;;1695193;29;20228;-68
2022/10/02 08:08:52;;;;;;;6.35;2.85;;;15.20;97.20;;;;;;1695425;29;20214;-69
2022/10/02 08:09:50;;;;;;;6.95;3.47;;;15.20;97.20;;;;;;1694934;29;20219;-69
2022/10/02 08:10:46;;;;;;;3.33;2.42;;;15.20;97.20;;;;;;1695178;29;20208;-68
2022/10/02 08:11:42;;;;;;;8.05;2.45;;;15.20;97.20;;;;;;1695116;29;20664;-69
2022/10/02 08:12:38;;;;;;;4.10;2.53;;;15.20;97.20;;;;;;1695191;29;20246;-69
2022/10/02 08:13:36;;;;;;;5.93;2.72;;;15.30;97.20;;;;;;1695109;29;20215;-68
2022/10/02 08:14:33;;;;;;;4.22;2.55;;;15.30;97.20;;;;;;1695034;29;20212;-69
2022/10/02 08:15:27;;;;;;;5.75;2.83;;;15.30;97.20;;;;;;1695067;29;20204;-69
2022/10/02 08:16:22;;;;;;;6.50;2.80;;;15.30;97.20;;;;;;1695093;29;20671;-69
2022/10/02 08:17:22;;;;;;;8.60;4.20;;;15.30;97.20;;;;;;1695168;29;20210;-69
2022/10/02 08:18:19;;;;;;;6.07;3.88;;;15.40;97.20;;;;;;1694456;29;20215;-70
2022/10/02 08:19:16;;;;;;;7.25;4.38;;;15.40;97.20;;;;;;1694528;29;20204;-69
2022/10/02 08:20:16;;;;;;;6.05;4.70;;;15.40;97.20;;;;;;1688344;29;20232;-69
2022/10/02 08:21:13;;;;;;;5.50;4.95;;;15.40;97.20;;;;;;1689930;29;20276;-69
2022/10/02 08:22:22;;;;;;;6.30;5.20;;;15.50;97.20;;;;;;1688613;29;20200;-69
2022/10/02 08:23:22;;;;;;;7.97;4.97;;;15.50;97.20;;;;;;1688792;29;20260;-69
2022/10/02 08:24:16;;;;;;;6.97;4.00;;;15.50;97.20;;;;;;1689334;29;20204;-69
2022/10/02 08:25:20;;;;;;;9.25;4.78;;;15.50;97.20;;;;;;1694870;29;20979;-69
2022/10/02 08:26:16;;;;;;;7.13;4.03;;;15.50;97.20;;;;;;1694948;29;20204;-69
2022/10/02 08:27:15;;;;;;;7.72;4.10;;;15.50;97.20;;;;;;1694936;29;20206;-69
2022/10/02 08:28:15;;;;;;;6.30;3.65;;;15.50;97.20;;;;;;1695178;29;20842;-69
2022/10/02 08:29:11;;;;;;;4.78;3.50;;;15.50;97.20;;;;;;1695044;29;20216;-69
2022/10/02 08:30:05;;;;;;;4.90;3.45;;;15.60;97.20;;;;;;1694721;29;20228;-69
2022/10/02 08:30:57;;;;;;;4.90;3.25;;;15.60;97.20;;;;;;1694675;29;20207;-69
2022/10/02 08:31:51;;;;;;;5.07;3.47;;;15.60;97.20;;;;;;1694885;29;20730;-72
2022/10/02 08:32:46;;;;;;;4.80;3.78;;;15.60;97.20;;;;;;1694769;29;20210;-69
2022/10/02 08:33:38;;;;;;;5.78;3.78;;;15.60;97.20;;;;;;1694742;29;20710;-69
2022/10/02 08:34:31;;;;;;;11.75;5.88;;;15.60;97.20;;;;;;1694920;29;20662;-69
2022/10/02 08:35:30;;;;;;;8.05;5.00;;;15.70;97.20;;;;;;1694240;29;20203;-69
2022/10/02 08:36:43;;;;;;;13.00;5.72;;;15.70;97.20;;;;;;1688587;29;20197;-69
2022/10/02 08:37:41;;;;;;;8.02;5.70;;;15.70;97.20;;;;;;1689427;29;20197;-69
2022/10/02 08:38:41;;;;;;;6.93;5.97;;;15.70;97.20;;;;;;1688503;29;20224;-70
2022/10/02 08:39:53;;;;;;;10.50;6.40;;;15.70;97.20;;;;;;1688472;29;20205;-69
2022/10/02 08:41:12;;;;;;;6.55;5.75;;;15.70;97.20;;;;;;1688395;29;20637;-69
2022/10/02 08:42:34;;;;;;;7.65;5.50;;;15.70;97.20;;;;;;1688502;29;20208;-68
2022/10/02 08:44:09;;;;;;;6.10;4.38;;;15.70;97.20;;;;;;1694154;29;20208;-71
2022/10/02 08:45:24;;;;;;;4.78;3.35;;;15.80;97.20;;;;;;1694546;29;20223;-69
2022/10/02 08:46:48;;;;;;;5.65;3.42;;;15.80;97.20;;;;;;1694407;29;20220;-70
2022/10/02 08:48:19;;;;;;;4.20;2.22;;;15.80;97.20;;;;;;1694491;29;20208;-68
2022/10/02 08:49:59;;;;;;;4.18;2.08;;;15.70;97.20;;;;;;1691979;29;20205;-68
2022/10/02 08:51:22;;;;;;;4.05;1.83;;;15.70;97.20;;;;;;1691950;29;20204;-68
2022/10/02 08:52:50;;;;;;;5.32;2.38;;;15.70;97.20;;;;;;1690878;29;20647;-69
2022/10/02 08:54:19;;;;;;;7.25;2.08;;;15.70;97.20;;;;;;1692560;29;20247;-69
2022/10/02 08:55:49;;;;;;;3.38;2.22;;;15.80;97.20;;;;;;1693080;29;20596;-68
2022/10/02 08:57:03;;;;;;;6.57;2.50;;;15.90;97.20;;;;;;1693375;29;20771;-68
2022/10/02 08:58:22;;;;;;;3.65;1.75;;;15.90;97.20;;;;;;1694401;29;20259;-69
2022/10/02 08:59:51;;;;;;;4.90;2.10;;;16.00;97.20;;;;;;1694562;29;20200;-68
2022/10/02 09:00:54;;;;;;;2.78;1.88;;;16.10;97.20;;;;;;1691747;29;20205;-68
2022/10/02 09:02:18;;;;;;;4.10;1.73;;;16.10;97.20;;;;;;1692868;29;20200;-69
2022/10/02 09:03:37;;;;;;;3.40;2.00;;;16.20;97.20;;;;;;1690843;29;20248;-70
2022/10/02 09:04:53;;;;;;;4.28;2.30;;;16.30;97.20;;;;;;1691966;29;20196;-68
2022/10/02 09:06:27;;;;;;;3.38;1.58;;;16.30;97.20;;;;;;1689389;29;20227;-68
2022/10/02 09:07:52;;;;;;;5.18;1.83;;;16.40;97.20;;;;;;1688201;29;20244;-69
2022/10/02 09:09:24;;;;;;;5.53;1.58;;;16.50;97.20;;;;;;1694162;29;20230;-69
2022/10/02 09:10:57;;;;;;;6.55;2.90;;;16.60;97.20;;;;;;1689606;29;20598;-69
2022/10/02 09:12:27;;;;;;;5.00;1.80;;;16.60;97.20;;;;;;1692678;29;20667;-69
2022/10/02 09:13:53;;;;;;;2.90;1.67;;;16.70;97.20;;;;;;1691148;29;20196;-69
2022/10/02 09:14:51;;;;;;;9.63;2.20;;;16.80;97.20;;;;;;1687627;29;20295;-70
2022/10/02 09:15:45;;;;;;;6.07;1.95;;;16.90;97.20;;;;;;1691680;29;20196;-69
2022/10/02 09:16:56;;;;;;;3.38;1.73;;;17.00;97.20;;;;;;1694436;29;20304;-68
2022/10/02 09:17:58;;;;;;;2.28;1.83;;;17.00;97.20;;;;;;1694703;29;20227;-68
2022/10/02 09:18:58;;;;;;;4.55;1.60;;;17.10;97.20;;;;;;1694439;29;20678;-69
2022/10/02 09:20:16;;;;;;;2.95;1.85;;;17.10;97.20;;;;;;1693049;29;20208;-69
2022/10/02 09:21:17;;;;;;;3.17;1.60;;;17.20;97.20;;;;;;1693246;29;20219;-70
2022/10/02 09:22:35;;;;;;;2.78;1.70;;;17.30;97.20;;;;;;1687809;29;20216;-69
2022/10/02 09:24:02;;;;;;;4.13;1.60;;;17.40;97.20;;;;;;1674274;29;20711;-69
2022/10/02 09:25:21;;;;;;;4.47;1.50;;;17.50;97.20;;;;;;1688032;29;20236;-69
2022/10/02 09:26:28;;;;;;;3.95;2.28;;;17.70;97.20;;;;;;1687907;29;20218;-69
2022/10/02 09:27:54;;;;;;;4.45;1.60;;;17.80;97.20;;;;;;1687319;29;20232;-69
2022/10/02 09:29:29;;;;;;;3.70;1.52;;;18.00;97.20;;;;;;1687800;29;20628;-69
2022/10/02 09:31:02;;;;;;;3.03;1.80;;;18.20;97.20;;;;;;1693380;29;20228;-69
2022/10/02 09:32:23;;;;;;;2.55;1.42;;;18.40;97.20;;;;;;1694438;29;20204;-69
2022/10/02 09:33:42;;;;;;;2.47;1.40;;;18.50;97.20;;;;;;1694240;29;20363;-68
2022/10/02 09:35:00;;;;;;;4.43;1.45;;;18.60;97.20;;;;;;1694220;29;20827;-69
2022/10/02 09:36:25;;;;;;;1.58;1.00;;;18.60;97.20;;;;;;1694366;29;20230;-69
2022/10/02 09:38:04;;;;;;;3.05;1.63;;;18.50;97.20;;;;;;1694061;29;20622;-69
2022/10/02 09:39:31;;;;;;;4.18;1.45;;;18.50;97.20;;;;;;1694539;29;20558;-70
2022/10/02 09:41:08;;;;;;;3.53;1.10;;;18.50;97.20;;;;;;1679111;29;20225;-69
2022/10/02 09:42:41;;;;;;;3.00;1.10;;;18.60;97.20;;;;;;1694110;29;20243;-69
2022/10/02 09:44:07;;;;;;;2.03;1.27;;;18.70;97.20;;;;;;1694433;29;20208;-69
2022/10/02 09:45:22;;;;;;;1.80;1.10;;;18.80;97.20;;;;;;1679884;29;20740;-68
2022/10/02 09:46:51;;;;;;;2.35;1.10;;;19.00;97.20;;;;;;1693273;29;20283;-69
2022/10/02 09:48:19;;;;;;;1.45;0.90;;;19.10;97.20;;;;;;1687412;29;20189;-69
2022/10/02 09:49:46;;;;;;;1.20;1.08;;;19.20;97.20;;;;;;1693793;29;20196;-70
2022/10/02 09:51:04;;;;;;;1.75;1.00;;;19.40;97.20;;;;;;1694138;29;20189;-69
2022/10/02 09:52:22;;;;;;;2.45;0.80;;;19.40;97.20;;;;;;1693947;29;20242;-69
2022/10/02 09:54:02;;;;;;;1.60;0.70;;;19.50;97.20;;;;;;1687747;29;20212;-69
2022/10/02 09:55:16;;;;;;;1.38;0.60;;;19.40;97.20;;;;;;1673928;29;20194;-69
2022/10/02 09:56:44;;;;;;;1.65;0.90;;;19.40;97.20;;;;;;1679134;29;20197;-69
2022/10/02 09:58:12;;;;;;;0.93;0.68;;;19.30;97.20;;;;;;1687217;29;20232;-69
2022/10/02 09:59:34;;;;;;;3.72;0.70;;;19.20;97.20;;;;;;1693727;29;20215;-69
2022/10/02 10:00:58;;;;;;;1.23;0.68;;;19.10;97.20;;;;;;1693430;29;20234;-69
2022/10/02 10:02:30;;;;;;;1.58;0.63;;;19.00;97.20;;;;;;1673762;29;20265;-69
2022/10/02 10:03:48;;;;;;;1.58;0.70;;;18.90;97.20;;;;;;1687691;29;20204;-69
2022/10/02 10:05:07;;;;;;;0.70;0.50;;;18.80;97.20;;;;;;1687884;29;20592;-69
2022/10/02 10:06:38;;;;;;;1.52;0.70;;;18.70;97.20;;;;;;1687715;29;20228;-68
2022/10/02 10:08:07;;;;;;;0.77;0.55;;;18.70;97.20;;;;;;1670881;29;20259;-69
2022/10/02 10:09:35;;;;;;;2.28;1.15;;;18.60;97.20;;;;;;1672498;29;20214;-69
2022/10/02 10:10:45;;;;;;;2.08;0.60;;;18.50;97.20;;;;;;1689766;29;20219;-69
2022/10/02 10:12:09;;;;;;;1.25;0.60;;;18.40;97.20;;;;;;1694256;29;20563;-70
2022/10/02 10:13:46;;;;;;;1.60;0.55;;;18.40;97.20;;;;;;1667561;29;20210;-69
2022/10/02 10:15:22;;;;;;;1.45;0.70;;;18.40;97.20;;;;;;1691146;29;20576;-70
2022/10/02 10:16:51;;;;;;;0.70;0.60;;;18.40;97.20;;;;;;1693593;29;20283;-69
2022/10/02 10:18:25;;;;;;;1.50;0.50;;;18.30;97.20;;;;;;1694295;29;20559;-69
2022/10/02 10:19:59;;;;;;;0.70;0.50;;;18.30;97.20;;;;;;1694130;29;20196;-70
2022/10/02 10:21:18;;;;;;;1.60;0.70;;;18.30;97.20;;;;;;1682444;29;20585;-69
2022/10/02 10:22:37;;;;;;;1.35;0.70;;;18.30;97.20;;;;;;1690803;29;20222;-69
2022/10/02 10:24:09;;;;;;;1.17;0.60;;;18.40;97.20;;;;;;1686245;29;20570;-69
2022/10/02 10:25:30;;;;;;;0.80;0.70;;;18.40;97.20;;;;;;1681065;29;20202;-70
2022/10/02 10:26:42;;;;;;;1.00;0.60;;;18.40;97.20;;;;;;1691179;29;20200;-70
2022/10/02 10:27:57;;;;;;;0.85;0.70;;;18.40;97.20;;;;;;1687642;29;20236;-69
2022/10/02 10:29:32;;;;;;;0.95;0.50;;;18.40;97.20;;;;;;1687251;29;20226;-70
2022/10/02 10:31:09;;;;;;;1.63;1.30;;;18.50;97.20;;;;;;1668255;29;20227;-70
2022/10/02 10:32:43;;;;;;;7.03;2.70;;;18.60;97.20;;;;;;1680281;29;20213;-69
2022/10/02 10:34:02;;;;;;;3.13;2.80;;;18.80;97.20;;;;;;1663173;29;20236;-69
2022/10/02 10:35:18;;;;;;;5.90;3.35;;;18.90;97.20;;;;;;1678916;29;20211;-69
2022/10/02 10:39:34;;;;;;;3.15;2.80;;;18.90;97.20;;;;;;1676172;29;20210;-73
2022/10/02 10:40:37;;;;;;;4.32;2.75;;;18.80;97.20;;;;;;1691741;29;20272;-69
2022/10/02 10:42:15;;;;;;;3.38;2.97;;;18.80;97.20;;;;;;1689929;29;20215;-70
2022/10/02 10:43:36;;;;;;;3.72;3.03;;;18.70;97.20;;;;;;1677169;29;20213;-70
2022/10/02 10:44:58;;;;;;;4.20;2.50;;;18.60;97.20;;;;;;1676219;29;20711;-71
2022/10/02 10:46:15;;;;;;;3.42;2.55;;;18.50;97.20;;;;;;1676337;29;20202;-71
2022/10/02 10:47:31;;;;;;;4.85;2.58;;;18.40;97.20;;;;;;1658117;29;20239;-71
2022/10/02 10:48:55;;;;;;;4.65;3.30;;;18.40;97.20;;;;;;1678293;29;20656;-71
2022/10/02 10:50:09;;;;;;;3.17;2.20;;;18.30;97.20;;;;;;1693720;29;20573;-70
2022/10/02 10:51:22;;;;;;;4.70;2.70;;;18.20;97.20;;;;;;1690709;29;20196;-71
2022/10/02 10:52:24;;;;;;;5.45;2.80;;;18.20;97.20;;;;;;1690179;29;20530;-72
2022/10/02 10:53:53;;;;;;;5.55;2.90;;;18.20;97.20;;;;;;1690512;29;20200;-75
2022/10/02 10:55:07;;;;;;;3.13;2.80;;;18.10;97.20;;;;;;1689785;29;20208;-72
2022/10/02 10:56:27;;;;;;;4.90;3.05;;;18.10;97.20;;;;;;1691700;29;20302;-71
2022/10/02 10:57:32;;;;;;;7.95;2.70;;;18.00;97.20;;;;;;1693264;29;20730;-72
2022/10/02 10:58:41;;;;;;;3.08;2.45;;;18.00;97.20;;;;;;1691147;29;20211;-72
2022/10/02 11:00:02;;;;;;;5.20;2.60;;;18.00;97.20;;;;;;1691326;29;20809;-73